sensor_id;sensor_type;location;lat;lon;timestamp;pressure;altitude;pressure_sealevel;temperature;humidity
34979;BME280;21185;50.978;13.720;2022-12-18T00:04:38;99695.13;;;-4.76;69.32
34979;BME280;21185;50.978;13.720;2022-12-18T00:09:40;99694.34;;;-4.79;69.22
34979;BME280;21185;50.978;13.720;2022-12-18T00:14:42;99705.34;;;-4.80;69.22
34979;BME280;21185;50.978;13.720;2022-12-18T00:19:44;99707.91;;;-4.82;69.19
34979;BME280;21185;50.978;13.720;2022-12-18T00:24:45;99712.91;;;-4.79;69.48
34979;BME280;21185;50.978;13.720;2022-12-18T00:29:48;99703.53;;;-4.74;69.65
34979;BME280;21185;50.978;13.720;2022-12-18T00:34:50;99714.44;;;-4.72;69.64
34979;BME280;21185;50.978;13.720;2022-12-18T00:39:52;99719.50;;;-4.72;69.59
34979;BME280;21185;50.978;13.720;2022-12-18T00:44:54;99728.81;;;-4.72;69.71
34979;BME280;21185;50.978;13.720;2022-12-18T00:49:56;99722.91;;;-4.73;69.45
34979;BME280;21185;50.978;13.720;2022-12-18T00:54:58;99720.47;;;-4.77;69.22
34979;BME280;21185;50.978;13.720;2022-12-18T01:00:09;99727.28;;;-4.79;69.48
34979;BME280;21185;50.978;13.720;2022-12-18T01:05:13;99745.09;;;-4.84;69.24
34979;BME280;21185;50.978;13.720;2022-12-18T01:10:15;99744.34;;;-4.89;69.43
34979;BME280;21185;50.978;13.720;2022-12-18T01:15:17;99748.66;;;-4.94;69.25
34979;BME280;21185;50.978;13.720;2022-12-18T01:20:19;99750.44;;;-4.99;69.35
34979;BME280;21185;50.978;13.720;2022-12-18T01:25:21;99749.69;;;-5.04;69.08
34979;BME280;21185;50.978;13.720;2022-12-18T01:30:24;99750.66;;;-5.10;69.03
34979;BME280;21185;50.978;13.720;2022-12-18T01:35:27;99749.84;;;-5.12;68.99
34979;BME280;21185;50.978;13.720;2022-12-18T01:40:29;99751.56;;;-5.14;68.85
34979;BME280;21185;50.978;13.720;2022-12-18T01:45:31;99733.13;;;-5.19;68.79
34979;BME280;21185;50.978;13.720;2022-12-18T01:50:36;99743.28;;;-5.20;69.10
34979;BME280;21185;50.978;13.720;2022-12-18T02:00:50;99745.09;;;-5.27;68.75
34979;BME280;21185;50.978;13.720;2022-12-18T02:06:16;99763.69;;;-5.30;68.91
34979;BME280;21185;50.978;13.720;2022-12-18T02:16:48;99740.22;;;-5.36;68.79
34979;BME280;21185;50.978;13.720;2022-12-18T02:27:37;99756.38;;;-5.45;68.48
34979;BME280;21185;50.978;13.720;2022-12-18T02:32:46;99768.22;;;-5.47;68.39
34979;BME280;21185;50.978;13.720;2022-12-18T02:37:54;99771.66;;;-5.51;68.56
34979;BME280;21185;50.978;13.720;2022-12-18T02:43:23;99764.09;;;-5.52;68.51
34979;BME280;21185;50.978;13.720;2022-12-18T02:48:30;99761.59;;;-5.54;68.31
34979;BME280;21185;50.978;13.720;2022-12-18T02:53:50;99765.00;;;-5.55;68.30
34979;BME280;21185;50.978;13.720;2022-12-18T02:59:04;99765.00;;;-5.55;68.31
34979;BME280;21185;50.978;13.720;2022-12-18T03:04:45;99752.38;;;-5.57;68.11
34979;BME280;21185;50.978;13.720;2022-12-18T03:09:52;99769.28;;;-5.60;68.15
34979;BME280;21185;50.978;13.720;2022-12-18T03:20:21;99769.41;;;-5.68;67.92
34979;BME280;21185;50.978;13.720;2022-12-18T03:25:27;99767.78;;;-5.70;68.19
34979;BME280;21185;50.978;13.720;2022-12-18T03:30:30;99775.38;;;-5.72;68.09
34979;BME280;21185;50.978;13.720;2022-12-18T03:35:39;99780.47;;;-5.73;68.09
34979;BME280;21185;50.978;13.720;2022-12-18T03:41:02;99774.59;;;-5.75;67.83
34979;BME280;21185;50.978;13.720;2022-12-18T03:46:37;99775.50;;;-5.79;67.82
34979;BME280;21185;50.978;13.720;2022-12-18T03:52:00;99784.81;;;-5.83;68.00
34979;BME280;21185;50.978;13.720;2022-12-18T03:57:12;99785.69;;;-5.84;67.90
34979;BME280;21185;50.978;13.720;2022-12-18T04:02:17;99789.94;;;-5.86;67.57
34979;BME280;21185;50.978;13.720;2022-12-18T04:07:21;99797.59;;;-5.89;67.82
34979;BME280;21185;50.978;13.720;2022-12-18T04:12:25;99794.28;;;-5.94;67.70
34979;BME280;21185;50.978;13.720;2022-12-18T04:17:27;99797.69;;;-5.97;67.75
34979;BME280;21185;50.978;13.720;2022-12-18T04:22:31;99798.56;;;-5.99;67.30
34979;BME280;21185;50.978;13.720;2022-12-18T04:27:34;99797.75;;;-6.00;67.69
34979;BME280;21185;50.978;13.720;2022-12-18T04:32:38;99801.97;;;-6.02;67.70
34979;BME280;21185;50.978;13.720;2022-12-18T04:37:41;99796.09;;;-6.02;67.41
34979;BME280;21185;50.978;13.720;2022-12-18T04:42:43;99805.34;;;-6.01;67.67
34979;BME280;21185;50.978;13.720;2022-12-18T04:47:44;99805.34;;;-6.01;67.66
34979;BME280;21185;50.978;13.720;2022-12-18T04:52:46;99827.25;;;-6.02;67.69
34979;BME280;21185;50.978;13.720;2022-12-18T04:57:48;99810.41;;;-6.03;67.57
34979;BME280;21185;50.978;13.720;2022-12-18T05:02:50;99806.22;;;-6.02;67.52
34979;BME280;21185;50.978;13.720;2022-12-18T05:07:52;99814.66;;;-6.05;67.39
34979;BME280;21185;50.978;13.720;2022-12-18T05:12:54;99818.06;;;-6.06;67.45
34979;BME280;21185;50.978;13.720;2022-12-18T05:18:01;99813.03;;;-6.09;67.30
34979;BME280;21185;50.978;13.720;2022-12-18T05:23:04;99816.47;;;-6.13;67.55
34979;BME280;21185;50.978;13.720;2022-12-18T05:28:05;99811.50;;;-6.19;67.40
34979;BME280;21185;50.978;13.720;2022-12-18T05:33:07;99821.69;;;-6.25;67.49
34979;BME280;21185;50.978;13.720;2022-12-18T05:38:09;99808.22;;;-6.27;67.15
34979;BME280;21185;50.978;13.720;2022-12-18T05:43:11;99806.59;;;-6.31;67.46
34979;BME280;21185;50.978;13.720;2022-12-18T05:48:21;99808.31;;;-6.33;67.20
34979;BME280;21185;50.978;13.720;2022-12-18T05:53:23;99813.41;;;-6.36;66.90
34979;BME280;21185;50.978;13.720;2022-12-18T05:58:25;99823.50;;;-6.36;66.87
34979;BME280;21185;50.978;13.720;2022-12-18T06:03:27;99831.94;;;-6.37;66.85
34979;BME280;21185;50.978;13.720;2022-12-18T06:08:34;99829.47;;;-6.42;67.00
34979;BME280;21185;50.978;13.720;2022-12-18T06:13:37;99843.78;;;-6.42;66.75
34979;BME280;21185;50.978;13.720;2022-12-18T06:18:40;99841.31;;;-6.45;67.20
34979;BME280;21185;50.978;13.720;2022-12-18T06:23:42;99843.81;;;-6.45;67.19
34979;BME280;21185;50.978;13.720;2022-12-18T06:28:44;99858.13;;;-6.44;67.08
34979;BME280;21185;50.978;13.720;2022-12-18T06:33:46;99848.00;;;-6.43;67.00
34979;BME280;21185;50.978;13.720;2022-12-18T06:38:48;99852.22;;;-6.43;66.82
34979;BME280;21185;50.978;13.720;2022-12-18T06:43:50;99844.66;;;-6.45;66.81
34979;BME280;21185;50.978;13.720;2022-12-18T06:48:58;99856.47;;;-6.47;66.97
34979;BME280;21185;50.978;13.720;2022-12-18T06:54:00;99859.00;;;-6.48;67.09
34979;BME280;21185;50.978;13.720;2022-12-18T06:59:03;99856.50;;;-6.48;67.07
34979;BME280;21185;50.978;13.720;2022-12-18T07:04:04;99872.47;;;-6.46;67.06
34979;BME280;21185;50.978;13.720;2022-12-18T07:09:06;99877.50;;;-6.46;67.08
34979;BME280;21185;50.978;13.720;2022-12-18T07:14:08;99870.81;;;-6.49;67.11
34979;BME280;21185;50.978;13.720;2022-12-18T07:19:10;99883.41;;;-6.46;66.85
34979;BME280;21185;50.978;13.720;2022-12-18T07:24:12;99877.50;;;-6.46;67.18
34979;BME280;21185;50.978;13.720;2022-12-18T07:29:14;99882.53;;;-6.45;66.94
34979;BME280;21185;50.978;13.720;2022-12-18T07:34:16;99896.84;;;-6.45;67.10
34979;BME280;21185;50.978;13.720;2022-12-18T07:39:18;99904.41;;;-6.42;67.21
34979;BME280;21185;50.978;13.720;2022-12-18T07:44:20;99917.78;;;-6.34;67.20
34979;BME280;21185;50.978;13.720;2022-12-18T07:49:22;99898.38;;;-6.31;67.36
34979;BME280;21185;50.978;13.720;2022-12-18T07:54:24;99916.81;;;-6.23;67.16
34979;BME280;21185;50.978;13.720;2022-12-18T07:59:27;99913.28;;;-6.11;67.25
34979;BME280;21185;50.978;13.720;2022-12-18T08:04:29;99908.13;;;-6.00;67.30
34979;BME280;21185;50.978;13.720;2022-12-18T08:09:31;99907.16;;;-5.92;67.42
34979;BME280;21185;50.978;13.720;2022-12-18T08:14:32;99902.75;;;-5.80;67.64
34979;BME280;21185;50.978;13.720;2022-12-18T08:19:34;99890.00;;;-5.71;67.64
34979;BME280;21185;50.978;13.720;2022-12-18T08:24:36;99895.75;;;-5.62;67.65
34979;BME280;21185;50.978;13.720;2022-12-18T08:29:38;99894.88;;;-5.59;67.58
34979;BME280;21185;50.978;13.720;2022-12-18T08:34:40;99895.59;;;-5.51;67.89
34979;BME280;21185;50.978;13.720;2022-12-18T08:39:41;99902.19;;;-5.41;68.04
34979;BME280;21185;50.978;13.720;2022-12-18T08:44:43;99893.53;;;-5.26;68.18
34979;BME280;21185;50.978;13.720;2022-12-18T08:49:45;99893.25;;;-5.11;68.53
34979;BME280;21185;50.978;13.720;2022-12-18T08:54:47;99902.28;;;-4.96;68.43
34979;BME280;21185;50.978;13.720;2022-12-18T08:59:49;99909.59;;;-4.79;68.18
34979;BME280;21185;50.978;13.720;2022-12-18T09:04:51;99913.56;;;-4.65;68.72
34979;BME280;21185;50.978;13.720;2022-12-18T09:09:58;99900.63;;;-4.51;68.72
34979;BME280;21185;50.978;13.720;2022-12-18T09:14:59;99908.94;;;-4.44;68.45
34979;BME280;21185;50.978;13.720;2022-12-18T09:20:01;99922.75;;;-4.16;69.03
34979;BME280;21185;50.978;13.720;2022-12-18T09:25:05;99938.50;;;-4.00;69.00
34979;BME280;21185;50.978;13.720;2022-12-18T09:30:09;99940.94;;;-3.55;69.59
34979;BME280;21185;50.978;13.720;2022-12-18T09:35:11;99940.53;;;-3.37;69.20
34979;BME280;21185;50.978;13.720;2022-12-18T09:40:19;99941.31;;;-3.34;69.37
34979;BME280;21185;50.978;13.720;2022-12-18T09:45:22;99935.34;;;-3.33;69.26
34979;BME280;21185;50.978;13.720;2022-12-18T09:50:37;99936.09;;;-3.28;69.56
34979;BME280;21185;50.978;13.720;2022-12-18T09:55:43;99926.59;;;-3.19;69.70
34979;BME280;21185;50.978;13.720;2022-12-18T10:00:47;99919.78;;;-3.17;69.62
34979;BME280;21185;50.978;13.720;2022-12-18T10:11:03;99911.50;;;-3.26;69.94
34979;BME280;21185;50.978;13.720;2022-12-18T10:16:19;99897.94;;;-3.24;70.18
34979;BME280;21185;50.978;13.720;2022-12-18T10:21:51;99881.84;;;-3.23;70.48
34979;BME280;21185;50.978;13.720;2022-12-18T10:27:11;99880.09;;;-3.21;70.54
34979;BME280;21185;50.978;13.720;2022-12-18T10:32:20;99865.66;;;-3.19;70.67
34979;BME280;21185;50.978;13.720;2022-12-18T10:37:25;99857.81;;;-3.10;70.70
34979;BME280;21185;50.978;13.720;2022-12-18T10:42:27;99846.59;;;-3.02;70.70
34979;BME280;21185;50.978;13.720;2022-12-18T10:47:29;99837.34;;;-3.04;70.67
34979;BME280;21185;50.978;13.720;2022-12-18T10:52:31;99839.13;;;-3.08;70.81
34979;BME280;21185;50.978;13.720;2022-12-18T10:57:37;99846.56;;;-3.00;71.08
34979;BME280;21185;50.978;13.720;2022-12-18T11:02:40;99843.03;;;-2.95;71.06
34979;BME280;21185;50.978;13.720;2022-12-18T11:07:50;99841.16;;;-2.88;71.44
34979;BME280;21185;50.978;13.720;2022-12-18T11:12:52;99842.75;;;-2.84;71.36
34979;BME280;21185;50.978;13.720;2022-12-18T11:17:54;99829.97;;;-2.81;71.49
34979;BME280;21185;50.978;13.720;2022-12-18T11:22:58;99812.94;;;-2.77;71.77
34979;BME280;21185;50.978;13.720;2022-12-18T11:28:05;99811.13;;;-2.74;71.60
34979;BME280;21185;50.978;13.720;2022-12-18T11:33:25;99812.00;;;-2.75;71.77
34979;BME280;21185;50.978;13.720;2022-12-18T11:38:33;99811.13;;;-2.74;71.87
34979;BME280;21185;50.978;13.720;2022-12-18T11:43:49;99806.94;;;-2.75;71.84
34979;BME280;21185;50.978;13.720;2022-12-18T11:48:53;99807.00;;;-2.78;71.92
34979;BME280;21185;50.978;13.720;2022-12-18T11:53:55;99816.34;;;-2.78;71.89
34979;BME280;21185;50.978;13.720;2022-12-18T11:59:23;99814.63;;;-2.78;71.89
34979;BME280;21185;50.978;13.720;2022-12-18T12:15:03;99841.69;;;-2.77;71.80
34979;BME280;21185;50.978;13.720;2022-12-18T12:20:42;99837.47;;;-2.76;71.98
34979;BME280;21185;50.978;13.720;2022-12-18T12:25:49;99841.69;;;-2.77;71.85
34979;BME280;21185;50.978;13.720;2022-12-18T12:41:44;99856.94;;;-2.77;71.79
34979;BME280;21185;50.978;13.720;2022-12-18T12:47:31;99869.72;;;-2.80;71.80
34979;BME280;21185;50.978;13.720;2022-12-18T12:52:40;99843.63;;;-2.85;71.69
34979;BME280;21185;50.978;13.720;2022-12-18T12:58:02;99842.88;;;-2.88;71.67
34979;BME280;21185;50.978;13.720;2022-12-18T13:08:31;99831.28;;;-2.99;71.62
34979;BME280;21185;50.978;13.720;2022-12-18T13:18:55;99828.84;;;-3.03;71.43
34979;BME280;21185;50.978;13.720;2022-12-18T13:24:19;99834.00;;;-3.06;71.40
34979;BME280;21185;50.978;13.720;2022-12-18T13:29:44;99840.03;;;-3.10;71.38
34979;BME280;21185;50.978;13.720;2022-12-18T13:34:47;99840.16;;;-3.15;71.56
34979;BME280;21185;50.978;13.720;2022-12-18T13:39:49;99837.72;;;-3.19;71.19
34979;BME280;21185;50.978;13.720;2022-12-18T13:44:51;99842.03;;;-3.23;71.20
34979;BME280;21185;50.978;13.720;2022-12-18T13:49:53;99833.56;;;-3.22;71.02
34979;BME280;21185;50.978;13.720;2022-12-18T13:54:57;99829.31;;;-3.21;71.15
34979;BME280;21185;50.978;13.720;2022-12-18T14:00:25;99830.16;;;-3.21;71.06
34979;BME280;21185;50.978;13.720;2022-12-18T14:05:31;99831.94;;;-3.24;71.06
34979;BME280;21185;50.978;13.720;2022-12-18T14:10:35;99830.41;;;-3.32;71.10
34979;BME280;21185;50.978;13.720;2022-12-18T14:15:50;99829.78;;;-3.40;71.01
34979;BME280;21185;50.978;13.720;2022-12-18T14:20:55;99837.53;;;-3.46;71.01
34979;BME280;21185;50.978;13.720;2022-12-18T14:25:59;99841.94;;;-3.54;71.02
34979;BME280;21185;50.978;13.720;2022-12-18T14:31:18;99823.50;;;-3.61;70.90
34979;BME280;21185;50.978;13.720;2022-12-18T14:36:26;99805.06;;;-3.67;70.82
34979;BME280;21185;50.978;13.720;2022-12-18T14:41:30;99806.91;;;-3.74;70.88
34979;BME280;21185;50.978;13.720;2022-12-18T14:46:35;99802.78;;;-3.78;70.99
34979;BME280;21185;50.978;13.720;2022-12-18T14:51:38;99805.38;;;-3.81;71.14
34979;BME280;21185;50.978;13.720;2022-12-18T14:56:46;99807.91;;;-3.81;71.02
34979;BME280;21185;50.978;13.720;2022-12-18T15:07:21;99797.06;;;-3.87;70.95
34979;BME280;21185;50.978;13.720;2022-12-18T15:17:41;99799.78;;;-3.95;71.21
34979;BME280;21185;50.978;13.720;2022-12-18T15:22:42;99800.75;;;-4.01;70.99
34979;BME280;21185;50.978;13.720;2022-12-18T15:27:46;99800.00;;;-4.04;71.27
34979;BME280;21185;50.978;13.720;2022-12-18T15:32:49;99792.47;;;-4.09;71.20
34979;BME280;21185;50.978;13.720;2022-12-18T15:37:52;99786.63;;;-4.11;71.32
34979;BME280;21185;50.978;13.720;2022-12-18T15:42:54;99779.06;;;-4.14;71.17
34979;BME280;21185;50.978;13.720;2022-12-18T15:48:24;99779.16;;;-4.17;71.13
34979;BME280;21185;50.978;13.720;2022-12-18T15:53:31;99795.31;;;-4.22;71.20
34979;BME280;21185;50.978;13.720;2022-12-18T15:58:33;99794.50;;;-4.23;71.18
34979;BME280;21185;50.978;13.720;2022-12-18T16:03:36;99790.34;;;-4.27;71.36
34979;BME280;21185;50.978;13.720;2022-12-18T16:08:39;99778.53;;;-4.28;71.33
34979;BME280;21185;50.978;13.720;2022-12-18T16:13:42;99776.06;;;-4.31;71.43
34979;BME280;21185;50.978;13.720;2022-12-18T16:18:44;99774.41;;;-4.32;71.47
34979;BME280;21185;50.978;13.720;2022-12-18T16:23:46;99771.81;;;-4.29;71.60
34979;BME280;21185;50.978;13.720;2022-12-18T16:28:48;99777.75;;;-4.30;71.47
34979;BME280;21185;50.978;13.720;2022-12-18T16:39:14;99761.53;;;-4.23;71.48
34979;BME280;21185;50.978;13.720;2022-12-18T16:44:16;99758.97;;;-4.21;71.69
34979;BME280;21185;50.978;13.720;2022-12-18T16:49:18;99758.88;;;-4.17;71.57
34979;BME280;21185;50.978;13.720;2022-12-18T16:54:20;99766.34;;;-4.11;71.77
34979;BME280;21185;50.978;13.720;2022-12-18T16:59:22;99758.63;;;-4.06;71.66
34979;BME280;21185;50.978;13.720;2022-12-18T17:04:24;99757.72;;;-4.04;71.62
34979;BME280;21185;50.978;13.720;2022-12-18T17:09:26;99753.53;;;-4.05;71.62
34979;BME280;21185;50.978;13.720;2022-12-18T17:14:28;99743.38;;;-4.05;71.72
34979;BME280;21185;50.978;13.720;2022-12-18T17:19:30;99743.34;;;-4.03;71.89
34979;BME280;21185;50.978;13.720;2022-12-18T17:24:32;99730.66;;;-4.03;71.81
34979;BME280;21185;50.978;13.720;2022-12-18T17:29:36;99731.47;;;-4.01;71.89
34979;BME280;21185;50.978;13.720;2022-12-18T17:34:46;99728.84;;;-3.98;71.69
34979;BME280;21185;50.978;13.720;2022-12-18T17:39:48;99722.09;;;-3.98;71.82
34979;BME280;21185;50.978;13.720;2022-12-18T17:44:50;99728.81;;;-3.97;71.76
34979;BME280;21185;50.978;13.720;2022-12-18T17:49:52;99718.59;;;-3.94;71.89
34979;BME280;21185;50.978;13.720;2022-12-18T17:54:56;99711.78;;;-3.92;71.73
34979;BME280;21185;50.978;13.720;2022-12-18T17:59:58;99704.19;;;-3.92;71.90
34979;BME280;21185;50.978;13.720;2022-12-18T18:04:59;99717.66;;;-3.89;71.94
34979;BME280;21185;50.978;13.720;2022-12-18T18:10:01;99708.31;;;-3.87;72.04
34979;BME280;21185;50.978;13.720;2022-12-18T18:15:03;99705.78;;;-3.87;71.95
34979;BME280;21185;50.978;13.720;2022-12-18T18:20:06;99698.06;;;-3.83;71.95
34979;BME280;21185;50.978;13.720;2022-12-18T18:25:08;99699.72;;;-3.82;72.05
34979;BME280;21185;50.978;13.720;2022-12-18T18:30:11;99692.13;;;-3.82;72.09
34979;BME280;21185;50.978;13.720;2022-12-18T18:35:13;99686.97;;;-3.79;72.17
34979;BME280;21185;50.978;13.720;2022-12-18T18:40:35;99686.13;;;-3.79;72.20
34979;BME280;21185;50.978;13.720;2022-12-18T18:45:37;99675.09;;;-3.77;72.31
34979;BME280;21185;50.978;13.720;2022-12-18T18:50:40;99671.66;;;-3.76;72.55
34979;BME280;21185;50.978;13.720;2022-12-18T18:55:44;99686.88;;;-3.76;72.43
34979;BME280;21185;50.978;13.720;2022-12-18T19:01:14;99662.41;;;-3.77;72.77
34979;BME280;21185;50.978;13.720;2022-12-18T19:06:20;99661.56;;;-3.77;72.70
34979;BME280;21185;50.978;13.720;2022-12-18T19:11:25;99644.69;;;-3.78;72.92
34979;BME280;21185;50.978;13.720;2022-12-18T19:16:46;99636.25;;;-3.79;73.01
34979;BME280;21185;50.978;13.720;2022-12-18T19:21:47;99624.41;;;-3.78;72.94
34979;BME280;21185;50.978;13.720;2022-12-18T19:26:50;99626.88;;;-3.77;73.11
34979;BME280;21185;50.978;13.720;2022-12-18T19:31:55;99609.09;;;-3.75;73.11
34979;BME280;21185;50.978;13.720;2022-12-18T19:36:57;99605.59;;;-3.71;73.19
34979;BME280;21185;50.978;13.720;2022-12-18T19:42:00;99587.72;;;-3.67;73.39
34979;BME280;21185;50.978;13.720;2022-12-18T19:47:02;99574.97;;;-3.64;73.38
34979;BME280;21185;50.978;13.720;2022-12-18T19:52:04;99575.66;;;-3.59;73.34
34979;BME280;21185;50.978;13.720;2022-12-18T19:57:06;99583.03;;;-3.49;73.39
34979;BME280;21185;50.978;13.720;2022-12-18T20:02:12;99571.00;;;-3.43;72.96
34979;BME280;21185;50.978;13.720;2022-12-18T20:07:14;99576.78;;;-3.38;73.17
34979;BME280;21185;50.978;13.720;2022-12-18T20:12:16;99561.28;;;-3.29;73.29
34979;BME280;21185;50.978;13.720;2022-12-18T20:17:18;99560.28;;;-3.23;73.27
34979;BME280;21185;50.978;13.720;2022-12-18T20:22:21;99573.69;;;-3.19;73.15
34979;BME280;21185;50.978;13.720;2022-12-18T20:27:23;99570.25;;;-3.17;72.80
34979;BME280;21185;50.978;13.720;2022-12-18T20:32:25;99579.53;;;-3.16;72.72
34979;BME280;21185;50.978;13.720;2022-12-18T20:37:30;99567.56;;;-3.12;72.73
34979;BME280;21185;50.978;13.720;2022-12-18T20:42:32;99559.78;;;-3.06;72.65
34979;BME280;21185;50.978;13.720;2022-12-18T20:47:33;99546.00;;;-2.99;72.57
34979;BME280;21185;50.978;13.720;2022-12-18T20:52:35;99535.75;;;-2.96;72.42
34979;BME280;21185;50.978;13.720;2022-12-18T20:57:37;99545.81;;;-2.93;72.16
34979;BME280;21185;50.978;13.720;2022-12-18T21:02:39;99537.31;;;-2.92;72.06
34979;BME280;21185;50.978;13.720;2022-12-18T21:07:41;99542.31;;;-2.89;71.95
34979;BME280;21185;50.978;13.720;2022-12-18T21:12:43;99543.00;;;-2.84;71.99
34979;BME280;21185;50.978;13.720;2022-12-18T21:18:03;99535.19;;;-2.78;71.82
34979;BME280;21185;50.978;13.720;2022-12-18T21:23:05;99542.53;;;-2.69;71.59
34979;BME280;21185;50.978;13.720;2022-12-18T21:28:17;99524.59;;;-2.64;71.35
34979;BME280;21185;50.978;13.720;2022-12-18T21:33:19;99538.03;;;-2.61;71.20
34979;BME280;21185;50.978;13.720;2022-12-18T21:38:21;99535.44;;;-2.59;70.95
34979;BME280;21185;50.978;13.720;2022-12-18T21:43:23;99526.94;;;-2.58;70.78
34979;BME280;21185;50.978;13.720;2022-12-18T21:48:43;99522.69;;;-2.57;70.58
34979;BME280;21185;50.978;13.720;2022-12-18T21:53:46;99531.03;;;-2.54;70.54
34979;BME280;21185;50.978;13.720;2022-12-18T21:58:50;99534.44;;;-2.55;70.40
34979;BME280;21185;50.978;13.720;2022-12-18T22:03:57;99504.88;;;-2.57;70.19
34979;BME280;21185;50.978;13.720;2022-12-18T22:08:59;99515.16;;;-2.61;70.21
34979;BME280;21185;50.978;13.720;2022-12-18T22:14:01;99525.41;;;-2.64;69.82
34979;BME280;21185;50.978;13.720;2022-12-18T22:19:03;99506.03;;;-2.66;69.71
34979;BME280;21185;50.978;13.720;2022-12-18T22:24:09;99510.38;;;-2.70;69.93
34979;BME280;21185;50.978;13.720;2022-12-18T22:29:18;99501.13;;;-2.72;69.72
34979;BME280;21185;50.978;13.720;2022-12-18T22:34:38;99507.97;;;-2.74;69.86
34979;BME280;21185;50.978;13.720;2022-12-18T22:39:40;99488.59;;;-2.77;69.58
34979;BME280;21185;50.978;13.720;2022-12-18T22:44:42;99500.41;;;-2.76;69.55
34979;BME280;21185;50.978;13.720;2022-12-18T22:49:44;99485.94;;;-2.74;69.37
34979;BME280;21185;50.978;13.720;2022-12-18T22:54:46;99466.34;;;-2.70;69.07
34979;BME280;21185;50.978;13.720;2022-12-18T22:59:48;99475.69;;;-2.71;68.96
34979;BME280;21185;50.978;13.720;2022-12-18T23:04:51;99464.69;;;-2.71;68.90
34979;BME280;21185;50.978;13.720;2022-12-18T23:09:53;99453.59;;;-2.69;68.63
34979;BME280;21185;50.978;13.720;2022-12-18T23:15:03;99439.28;;;-2.71;68.59
34979;BME280;21185;50.978;13.720;2022-12-18T23:20:05;99428.38;;;-2.75;68.62
34979;BME280;21185;50.978;13.720;2022-12-18T23:25:08;99414.13;;;-2.79;68.40
34979;BME280;21185;50.978;13.720;2022-12-18T23:30:10;99403.19;;;-2.81;68.51
34979;BME280;21185;50.978;13.720;2022-12-18T23:35:12;99404.84;;;-2.80;68.52
34979;BME280;21185;50.978;13.720;2022-12-18T23:40:16;99391.28;;;-2.79;68.45
34979;BME280;21185;50.978;13.720;2022-12-18T23:45:18;99382.88;;;-2.81;68.28
34979;BME280;21185;50.978;13.720;2022-12-18T23:50:20;99364.38;;;-2.84;67.90
34979;BME280;21185;50.978;13.720;2022-12-18T23:55:30;99372.16;;;-2.89;68.35
